Time;durP1;ratioP1;P1;durP2;ratioP2;P2;SDS_P1;SDS_P2;PMS_P1;PMS_P2;Temp;Humidity;BMP_temperature;BMP_pressure;BME280_temperature;BME280_humidity;BME280_pressure;Samples;Min_cycle;Max_cycle;Signal;HPM_P1;HPM_P2
2023/04/28 00:00:21;;;;;;;8.97;4.53;;;;;;;;;;5113589;28;20454;-70
2023/04/28 00:02:49;;;;;;;8.17;4.90;;;;;;;;;;5120270;28;20521;-69
2023/04/28 00:05:20;;;;;;;5.70;4.63;;;;;;;;;;5119196;28;20526;-69
2023/04/28 00:07:48;;;;;;;6.90;4.23;;;;;;;;;;5119829;28;20660;-70
2023/04/28 00:10:17;;;;;;;8.20;4.67;;;;;;;;;;5118386;28;20451;-69
2023/04/28 00:12:45;;;;;;;6.70;4.47;;;;;;;;;;5120790;28;20463;-69
2023/04/28 00:15:20;;;;;;;7.70;5.10;;;;;;;;;;5119435;28;20567;-69
2023/04/28 00:17:49;;;;;;;6.70;4.63;;;;;;;;;;5115910;28;20492;-69
2023/04/28 00:20:22;;;;;;;8.30;4.87;;;;;;;;;;5105118;28;20486;-69
2023/04/28 00:22:53;;;;;;;6.73;4.40;;;;;;;;;;5113354;28;20556;-69
2023/04/28 00:25:21;;;;;;;8.47;4.83;;;;;;;;;;5110607;28;21050;-69
2023/04/28 00:27:49;;;;;;;8.23;4.77;;;;;;;;;;5103673;28;20456;-70
2023/04/28 00:30:18;;;;;;;9.40;4.50;;;;;;;;;;5102151;28;20902;-67
2023/04/28 00:32:47;;;;;;;9.77;6.43;;;;;;;;;;5103707;28;20527;-69
2023/04/28 00:35:17;;;;;;;11.03;4.60;;;;;;;;;;5100387;28;20452;-70
2023/04/28 00:37:48;;;;;;;7.00;5.57;;;;;;;;;;5102631;28;20440;-71
2023/04/28 00:40:16;;;;;;;7.33;4.60;;;;;;;;;;5100780;28;20459;-69
2023/04/28 00:42:45;;;;;;;9.30;5.53;;;;;;;;;;5115158;28;20486;-69
2023/04/28 00:45:16;;;;;;;9.53;5.97;;;;;;;;;;5120089;28;20511;-70
2023/04/28 00:47:47;;;;;;;11.50;4.87;;;;;;;;;;5119326;28;20454;-71
2023/04/28 00:50:20;;;;;;;8.80;5.10;;;;;;;;;;5121737;28;20445;-69
2023/04/28 00:52:51;;;;;;;10.23;5.10;;;;;;;;;;5120556;28;20450;-70
2023/04/28 00:55:20;;;;;;;10.40;6.53;;;;;;;;;;5122785;28;20859;-69
2023/04/28 00:57:49;;;;;;;7.80;5.70;;;;;;;;;;5120083;28;20448;-69
2023/04/28 01:00:18;;;;;;;8.80;4.90;;;;;;;;;;5120829;28;20462;-68
2023/04/28 01:02:46;;;;;;;7.10;4.50;;;;;;;;;;5121776;28;20479;-69
2023/04/28 01:05:16;;;;;;;14.10;5.57;;;;;;;;;;5118962;28;20448;-68
2023/04/28 01:07:44;;;;;;;6.63;4.43;;;;;;;;;;5119670;27;20448;-71
2023/04/28 01:10:15;;;;;;;7.07;4.33;;;;;;;;;;5119707;28;20516;-69
2023/04/28 01:12:45;;;;;;;7.67;4.70;;;;;;;;;;5097745;28;20478;-70
2023/04/28 01:15:15;;;;;;;6.87;4.67;;;;;;;;;;5121357;28;21096;-68
2023/04/28 01:17:43;;;;;;;6.83;4.33;;;;;;;;;;5119877;28;20439;-70
2023/04/28 01:20:13;;;;;;;7.00;4.57;;;;;;;;;;5118790;28;20777;-69
2023/04/28 01:22:41;;;;;;;6.70;4.83;;;;;;;;;;5121550;28;20913;-69
2023/04/28 01:25:11;;;;;;;9.60;4.37;;;;;;;;;;5122104;28;20791;-70
2023/04/28 01:27:41;;;;;;;9.60;4.47;;;;;;;;;;5121570;28;20866;-70
2023/04/28 01:30:12;;;;;;;7.13;4.90;;;;;;;;;;5114779;28;20863;-69
2023/04/28 01:32:40;;;;;;;8.10;4.93;;;;;;;;;;5102031;28;20449;-68
2023/04/28 01:35:09;;;;;;;11.07;4.67;;;;;;;;;;5100448;28;20452;-69
2023/04/28 01:37:37;;;;;;;9.60;4.80;;;;;;;;;;5099071;28;20459;-69
2023/04/28 01:40:08;;;;;;;7.17;4.10;;;;;;;;;;5100390;28;20863;-70
2023/04/28 01:42:38;;;;;;;8.07;4.97;;;;;;;;;;5100034;28;21059;-69
2023/04/28 01:45:07;;;;;;;6.67;5.10;;;;;;;;;;5111789;28;20462;-70
2023/04/28 01:47:35;;;;;;;6.10;4.40;;;;;;;;;;5121590;28;20465;-69
2023/04/28 01:50:05;;;;;;;7.97;4.70;;;;;;;;;;5120818;28;20451;-71
2023/04/28 01:52:34;;;;;;;9.53;4.80;;;;;;;;;;5120805;28;20795;-70
2023/04/28 01:55:03;;;;;;;8.67;4.80;;;;;;;;;;5119453;28;20462;-68
2023/04/28 01:57:33;;;;;;;8.03;5.90;;;;;;;;;;5119925;28;20448;-70
2023/04/28 02:00:08;;;;;;;6.10;4.47;;;;;;;;;;5119715;28;20690;-70
2023/04/28 02:02:38;;;;;;;6.73;4.53;;;;;;;;;;5120027;28;20482;-68
2023/04/28 02:05:07;;;;;;;6.43;4.50;;;;;;;;;;5120946;28;20460;-69
2023/04/28 02:07:35;;;;;;;9.10;5.07;;;;;;;;;;5119356;28;20494;-69
2023/04/28 02:10:06;;;;;;;5.80;4.50;;;;;;;;;;5119775;28;20516;-70
2023/04/28 02:12:34;;;;;;;7.10;5.07;;;;;;;;;;5121944;28;20477;-72
2023/04/28 02:15:05;;;;;;;6.33;4.87;;;;;;;;;;5120320;28;20960;-69
2023/04/28 02:17:34;;;;;;;7.63;4.77;;;;;;;;;;5119980;28;20447;-69
2023/04/28 02:20:05;;;;;;;7.00;4.37;;;;;;;;;;5119981;28;20439;-69
2023/04/28 02:22:33;;;;;;;7.40;4.70;;;;;;;;;;5120092;28;20520;-70
2023/04/28 02:25:02;;;;;;;6.93;4.77;;;;;;;;;;5120649;28;20469;-67
2023/04/28 02:27:30;;;;;;;6.43;4.47;;;;;;;;;;5118969;28;20709;-69
2023/04/28 02:29:58;;;;;;;7.90;4.50;;;;;;;;;;5119710;28;20456;-70
2023/04/28 02:32:28;;;;;;;6.67;4.20;;;;;;;;;;5120009;28;20506;-69
2023/04/28 02:34:57;;;;;;;10.23;4.73;;;;;;;;;;5119472;28;20491;-68
2023/04/28 02:37:26;;;;;;;6.53;4.40;;;;;;;;;;5121437;28;20447;-69
2023/04/28 02:39:54;;;;;;;7.17;3.87;;;;;;;;;;5119617;28;20527;-69
2023/04/28 02:42:23;;;;;;;7.57;4.37;;;;;;;;;;5120191;28;20451;-70
2023/04/28 02:44:51;;;;;;;5.73;4.20;;;;;;;;;;5119521;28;20512;-69
2023/04/28 02:47:20;;;;;;;5.43;4.00;;;;;;;;;;5119618;28;20451;-70
2023/04/28 02:49:51;;;;;;;7.23;4.70;;;;;;;;;;5118575;28;20443;-69
2023/04/28 02:52:19;;;;;;;7.67;4.90;;;;;;;;;;5118986;28;20538;-69
2023/04/28 02:54:53;;;;;;;9.50;4.60;;;;;;;;;;5119404;28;20462;-68
2023/04/28 02:57:21;;;;;;;7.33;4.50;;;;;;;;;;5118954;28;20435;-68
2023/04/28 02:59:50;;;;;;;7.83;4.90;;;;;;;;;;5119201;28;20806;-70
2023/04/28 03:02:19;;;;;;;6.57;3.80;;;;;;;;;;5116758;28;20733;-69
2023/04/28 03:04:50;;;;;;;11.03;4.67;;;;;;;;;;5117836;28;20493;-69
2023/04/28 03:07:19;;;;;;;5.73;4.30;;;;;;;;;;5117695;28;20454;-69
2023/04/28 03:09:47;;;;;;;7.13;4.10;;;;;;;;;;5117945;28;20462;-70
2023/04/28 03:12:16;;;;;;;8.43;4.83;;;;;;;;;;5120158;28;20451;-70
2023/04/28 03:14:44;;;;;;;10.90;4.03;;;;;;;;;;5118635;28;21152;-69
2023/04/28 03:17:13;;;;;;;12.40;4.27;;;;;;;;;;5118807;28;20471;-69
2023/04/28 03:19:41;;;;;;;7.57;4.87;;;;;;;;;;5118310;28;20842;-69
2023/04/28 03:22:16;;;;;;;9.80;4.90;;;;;;;;;;5120136;28;20451;-69
2023/04/28 03:24:44;;;;;;;6.27;4.23;;;;;;;;;;5120462;28;20671;-69
2023/04/28 03:27:12;;;;;;;5.63;3.90;;;;;;;;;;5116834;28;20455;-69
2023/04/28 03:29:40;;;;;;;6.20;3.63;;;;;;;;;;5117688;28;20478;-69
2023/04/28 03:32:12;;;;;;;7.00;4.53;;;;;;;;;;5119684;28;20651;-70
2023/04/28 03:34:40;;;;;;;8.27;4.10;;;;;;;;;;5118081;28;20884;-69
2023/04/28 03:37:09;;;;;;;12.23;5.30;;;;;;;;;;5117041;28;20470;-69
2023/04/28 03:39:40;;;;;;;30.27;4.23;;;;;;;;;;5116889;28;20768;-68
2023/04/28 03:42:10;;;;;;;6.10;4.30;;;;;;;;;;5118101;28;20451;-68
2023/04/28 03:44:40;;;;;;;8.40;4.10;;;;;;;;;;5116604;28;20846;-68
2023/04/28 03:47:08;;;;;;;7.03;4.80;;;;;;;;;;5116648;28;20851;-70
2023/04/28 03:49:37;;;;;;;7.43;4.40;;;;;;;;;;5115431;28;20485;-70
2023/04/28 03:52:14;;;;;;;7.40;5.00;;;;;;;;;;5105958;28;20820;-70
2023/04/28 03:54:44;;;;;;;13.33;5.77;;;;;;;;;;5095637;28;20506;-69
2023/04/28 03:57:14;;;;;;;6.50;4.00;;;;;;;;;;5095352;28;20448;-69
2023/04/28 03:59:42;;;;;;;6.17;3.83;;;;;;;;;;5095323;28;20448;-69
2023/04/28 04:02:14;;;;;;;7.80;4.60;;;;;;;;;;5096338;28;20820;-69
2023/04/28 04:04:42;;;;;;;6.57;4.60;;;;;;;;;;5103368;28;20487;-68
2023/04/28 04:07:11;;;;;;;7.70;4.93;;;;;;;;;;5115419;28;20550;-70
2023/04/28 04:09:39;;;;;;;6.70;4.67;;;;;;;;;;5117128;28;20463;-70
2023/04/28 04:12:13;;;;;;;5.80;4.13;;;;;;;;;;5115669;28;21026;-70
2023/04/28 04:14:42;;;;;;;8.83;4.77;;;;;;;;;;5118016;28;20455;-69
2023/04/28 04:17:11;;;;;;;9.17;4.63;;;;;;;;;;5115592;28;20516;-68
2023/04/28 04:19:39;;;;;;;9.30;5.03;;;;;;;;;;5114698;28;20463;-69
2023/04/28 04:22:11;;;;;;;9.90;5.50;;;;;;;;;;5117833;28;20458;-69
2023/04/28 04:24:40;;;;;;;7.10;4.50;;;;;;;;;;5118130;28;20482;-71
2023/04/28 04:27:18;;;;;;;8.57;5.07;;;;;;;;;;5117629;28;20498;-69
2023/04/28 04:29:48;;;;;;;8.50;5.13;;;;;;;;;;5115861;28;20480;-69
2023/04/28 04:32:17;;;;;;;6.23;4.37;;;;;;;;;;5116579;28;20858;-69
2023/04/28 04:34:46;;;;;;;7.80;4.97;;;;;;;;;;5116309;28;20451;-69
2023/04/28 04:37:14;;;;;;;11.50;4.93;;;;;;;;;;5115930;28;20454;-70
2023/04/28 04:39:42;;;;;;;6.83;4.50;;;;;;;;;;5116574;28;20534;-68
2023/04/28 04:42:11;;;;;;;9.53;6.53;;;;;;;;;;5119996;28;20942;-70
2023/04/28 04:44:41;;;;;;;7.50;4.60;;;;;;;;;;5115217;28;20498;-69
2023/04/28 04:47:13;;;;;;;7.30;4.60;;;;;;;;;;5104286;28;20452;-69
2023/04/28 04:49:43;;;;;;;10.60;4.73;;;;;;;;;;5098406;28;20494;-71
2023/04/28 04:52:11;;;;;;;7.70;4.93;;;;;;;;;;5099988;28;20460;-69
2023/04/28 04:54:41;;;;;;;27.10;9.03;;;;;;;;;;5100568;28;20546;-69
2023/04/28 04:57:10;;;;;;;14.27;5.40;;;;;;;;;;5098086;28;20459;-69
2023/04/28 04:59:38;;;;;;;7.63;4.53;;;;;;;;;;5099606;28;20452;-69
2023/04/28 05:02:11;;;;;;;18.03;4.63;;;;;;;;;;5099096;28;20520;-70
2023/04/28 05:04:40;;;;;;;5.67;3.70;;;;;;;;;;5097497;28;20492;-70
2023/04/28 05:07:09;;;;;;;6.33;3.97;;;;;;;;;;5096449;28;20650;-69
2023/04/28 05:09:37;;;;;;;5.07;3.80;;;;;;;;;;5099628;28;20521;-70
2023/04/28 05:12:12;;;;;;;5.30;3.40;;;;;;;;;;5097071;28;20700;-69
2023/04/28 05:14:41;;;;;;;4.33;2.90;;;;;;;;;;5088249;28;20455;-70
2023/04/28 05:17:09;;;;;;;5.40;3.40;;;;;;;;;;5097970;28;20444;-70
2023/04/28 05:19:39;;;;;;;7.50;3.00;;;;;;;;;;5104432;28;20539;-68
2023/04/28 05:22:15;;;;;;;4.17;3.10;;;;;;;;;;5094149;28;20445;-69
2023/04/28 05:24:47;;;;;;;4.80;2.30;;;;;;;;;;5124045;27;20705;-70
2023/04/28 05:27:15;;;;;;;4.87;2.87;;;;;;;;;;5097371;27;20955;-70
2023/04/28 05:29:45;;;;;;;4.83;2.93;;;;;;;;;;5093524;28;20440;-69
2023/04/28 05:32:14;;;;;;;5.23;2.93;;;;;;;;;;5093937;28;20961;-69
2023/04/28 05:34:48;;;;;;;4.33;2.80;;;;;;;;;;5096522;28;20491;-71
2023/04/28 05:37:17;;;;;;;7.00;2.50;;;;;;;;;;5093547;28;20448;-70
2023/04/28 05:39:45;;;;;;;4.80;2.47;;;;;;;;;;5092633;28;20461;-68
2023/04/28 05:42:15;;;;;;;3.87;2.50;;;;;;;;;;5101762;28;20451;-69
2023/04/28 05:44:44;;;;;;;4.57;2.30;;;;;;;;;;5112176;28;20482;-68
2023/04/28 05:47:13;;;;;;;3.60;2.23;;;;;;;;;;5117537;28;20473;-68
2023/04/28 05:49:43;;;;;;;5.73;2.40;;;;;;;;;;5112985;28;20602;-69
2023/04/28 05:52:19;;;;;;;7.77;3.20;;;;;;;;;;5104994;28;20479;-71
2023/04/28 05:54:50;;;;;;;4.20;2.20;;;;;;;;;;5111249;28;20463;-69
2023/04/28 05:57:20;;;;;;;7.03;2.67;;;;;;;;;;5110939;28;20481;-69
2023/04/28 05:59:53;;;;;;;4.53;2.43;;;;;;;;;;5111535;28;20463;-71
2023/04/28 06:02:24;;;;;;;4.83;2.43;;;;;;;;;;5105974;28;20873;-69
2023/04/28 06:07:53;;;;;;;8.37;2.60;;;;;;;;;;5094479;28;20444;-71
2023/04/28 06:10:24;;;;;;;6.37;2.70;;;;;;;;;;5106746;28;20459;-69
2023/04/28 06:12:53;;;;;;;6.60;2.90;;;;;;;;;;5112719;28;20458;-70
2023/04/28 06:15:22;;;;;;;4.63;2.33;;;;;;;;;;5112475;28;20446;-69
2023/04/28 06:17:51;;;;;;;6.23;2.87;;;;;;;;;;5113315;28;20689;-69
2023/04/28 06:20:20;;;;;;;5.23;2.70;;;;;;;;;;5113881;28;20796;-69
2023/04/28 06:22:50;;;;;;;6.50;2.80;;;;;;;;;;5109764;28;20486;-70
2023/04/28 06:25:30;;;;;;;9.00;2.97;;;;;;;;;;5095912;28;20480;-69
2023/04/28 06:28:02;;;;;;;5.83;3.10;;;;;;;;;;5113208;28;20442;-70
2023/04/28 06:30:33;;;;;;;5.63;2.47;;;;;;;;;;5104206;28;20460;-69
2023/04/28 06:33:01;;;;;;;7.17;2.20;;;;;;;;;;5116625;27;20576;-70
2023/04/28 06:35:34;;;;;;;5.90;2.70;;;;;;;;;;5127420;27;20450;-68
2023/04/28 06:38:04;;;;;;;3.83;2.33;;;;;;;;;;5109481;27;20462;-68
2023/04/28 06:40:33;;;;;;;3.60;2.23;;;;;;;;;;5136095;27;20536;-69
2023/04/28 06:43:01;;;;;;;4.20;2.50;;;;;;;;;;5119542;27;20459;-70
2023/04/28 06:45:30;;;;;;;6.10;2.30;;;;;;;;;;5112987;28;20483;-68
2023/04/28 06:48:00;;;;;;;5.43;3.70;;;;;;;;;;5132311;27;20488;-69
2023/04/28 06:50:29;;;;;;;3.77;2.40;;;;;;;;;;5115385;28;20458;-69
2023/04/28 06:53:00;;;;;;;3.27;2.43;;;;;;;;;;5114577;28;20520;-70
2023/04/28 06:55:37;;;;;;;10.80;2.63;;;;;;;;;;5113492;28;20733;-71
2023/04/28 06:58:07;;;;;;;4.47;2.87;;;;;;;;;;5114537;28;20564;-70
2023/04/28 07:03:21;;;;;;;10.17;2.87;;;;;;;;;;5114728;28;20459;-71
2023/04/28 07:05:57;;;;;;;4.60;2.73;;;;;;;;;;5115294;28;20479;-70
2023/04/28 07:08:32;;;;;;;6.40;3.33;;;;;;;;;;5113523;28;20490;-68
2023/04/28 07:11:05;;;;;;;9.10;3.30;;;;;;;;;;5117456;28;20468;-69
2023/04/28 07:13:49;;;;;;;4.40;2.90;;;;;;;;;;5112593;28;20459;-70
2023/04/28 07:16:26;;;;;;;5.90;2.90;;;;;;;;;;5112974;28;20459;-70
2023/04/28 07:18:55;;;;;;;4.73;3.20;;;;;;;;;;5108097;28;20869;-69
2023/04/28 07:21:28;;;;;;;5.77;3.50;;;;;;;;;;5116115;27;21019;-68
2023/04/28 07:23:58;;;;;;;5.83;3.30;;;;;;;;;;5108120;28;20524;-70
2023/04/28 07:26:29;;;;;;;9.27;3.33;;;;;;;;;;5111908;28;20470;-69
2023/04/28 07:28:59;;;;;;;5.27;2.90;;;;;;;;;;5106011;28;20767;-69
2023/04/28 07:31:32;;;;;;;7.00;3.83;;;;;;;;;;5108706;28;20447;-70
2023/04/28 07:34:08;;;;;;;6.33;2.63;;;;;;;;;;5109480;28;20558;-71
2023/04/28 07:36:37;;;;;;;9.73;3.20;;;;;;;;;;5105612;28;20454;-70
2023/04/28 07:39:12;;;;;;;4.70;3.00;;;;;;;;;;5093345;28;20447;-70
2023/04/28 07:41:42;;;;;;;5.80;3.20;;;;;;;;;;5094361;28;20452;-70
2023/04/28 07:44:11;;;;;;;6.77;3.33;;;;;;;;;;5092488;28;20535;-70
2023/04/28 07:50:10;;;;;;;8.70;3.27;;;;;;;;;;5112884;28;20455;-69
2023/04/28 07:52:45;;;;;;;5.20;2.70;;;;;;;;;;5114204;28;20522;-71
2023/04/28 07:55:31;;;;;;;5.73;3.10;;;;;;;;;;5125701;28;20742;-70
2023/04/28 07:58:06;;;;;;;6.13;3.00;;;;;;;;;;5128163;27;20475;-70
2023/04/28 08:00:38;;;;;;;7.43;5.43;;;;;;;;;;5117839;28;20834;-69
2023/04/28 08:03:12;;;;;;;4.13;2.40;;;;;;;;;;5134918;27;20511;-69
2023/04/28 08:05:41;;;;;;;7.67;3.17;;;;;;;;;;5117842;28;20486;-70
2023/04/28 08:08:10;;;;;;;6.03;3.40;;;;;;;;;;5130351;27;20454;-69
2023/04/28 08:10:49;;;;;;;7.47;2.70;;;;;;;;;;5129820;27;20784;-69
2023/04/28 08:13:31;;;;;;;8.67;3.53;;;;;;;;;;5117680;28;20566;-70
2023/04/28 08:16:25;;;;;;;4.87;2.53;;;;;;;;;;5130047;27;20899;-71
2023/04/28 08:22:26;;;;;;;4.33;2.53;;;;;;;;;;5069178;28;20474;-69
2023/04/28 08:25:35;;;;;;;;;;;;;;;;;;;;;
2023/04/28 08:28:13;;;;;;;5.50;2.90;;;;;;;;;;5107029;28;20447;-69
2023/04/28 08:30:46;;;;;;;7.27;3.50;;;;;;;;;;5106106;28;20779;-70
2023/04/28 08:39:11;;;;;;;;;;;;;;;;;;;;;
2023/04/28 08:41:44;;;;;;;8.67;3.43;;;;;;;;;;5081883;28;20452;-70
2023/04/28 08:47:15;;;;;;;6.80;3.20;;;;;;;;;;5112829;28;20459;-69
2023/04/28 08:49:45;;;;;;;8.97;3.23;;;;;;;;;;5108565;27;20482;-69
2023/04/28 08:55:34;;;;;;;8.40;4.07;;;;;;;;;;5105403;28;20873;-69
2023/04/28 08:58:04;;;;;;;7.00;3.60;;;;;;;;;;5114862;28;20530;-68
2023/04/28 09:00:34;;;;;;;7.83;3.87;;;;;;;;;;5117646;28;20449;-70
2023/04/28 09:03:28;;;;;;;7.70;3.93;;;;;;;;;;5116338;28;20451;-70
2023/04/28 09:06:01;;;;;;;6.00;3.27;;;;;;;;;;5109182;28;20475;-69
2023/04/28 09:08:41;;;;;;;9.57;4.40;;;;;;;;;;5116603;28;20806;-69
2023/04/28 09:11:25;;;;;;;7.27;3.93;;;;;;;;;;5118174;28;20506;-70
2023/04/28 09:14:23;;;;;;;11.30;3.93;;;;;;;;;;5113417;28;20637;-70
2023/04/28 09:17:04;;;;;;;7.47;3.73;;;;;;;;;;5111963;28;20451;-68
2023/04/28 09:19:49;;;;;;;10.90;4.63;;;;;;;;;;5129218;27;20442;-69
2023/04/28 09:22:37;;;;;;;11.23;3.80;;;;;;;;;;5134232;27;20947;-70
2023/04/28 09:25:12;;;;;;;8.80;4.30;;;;;;;;;;5137481;27;20932;-68
2023/04/28 09:27:46;;;;;;;8.10;4.10;;;;;;;;;;5135768;27;20464;-69
2023/04/28 09:30:16;;;;;;;8.17;4.30;;;;;;;;;;5129100;27;20484;-70
2023/04/28 09:32:46;;;;;;;6.37;3.70;;;;;;;;;;5097063;28;20460;-69
2023/04/28 09:35:18;;;;;;;5.43;3.63;;;;;;;;;;5095265;28;20919;-68
2023/04/28 09:37:49;;;;;;;9.00;4.40;;;;;;;;;;5093623;28;21224;-69
2023/04/28 09:40:19;;;;;;;6.87;4.40;;;;;;;;;;5098945;28;20443;-69
2023/04/28 09:42:54;;;;;;;7.77;4.40;;;;;;;;;;5113093;28;20528;-68
2023/04/28 09:45:23;;;;;;;9.20;4.33;;;;;;;;;;5113117;28;20570;-69
2023/04/28 09:47:52;;;;;;;10.80;5.00;;;;;;;;;;5114137;28;20859;-70
2023/04/28 09:53:16;;;;;;;6.77;4.20;;;;;;;;;;5114611;28;20443;-71
2023/04/28 09:55:48;;;;;;;10.83;4.27;;;;;;;;;;5113593;28;20430;-70
2023/04/28 09:58:21;;;;;;;6.83;4.70;;;;;;;;;;5115990;28;20858;-70
2023/04/28 10:00:58;;;;;;;9.67;5.30;;;;;;;;;;5113480;28;20456;-70
2023/04/28 10:03:28;;;;;;;11.27;6.10;;;;;;;;;;5097846;28;20779;-69
2023/04/28 10:08:51;;;;;;;13.90;8.20;;;;;;;;;;5092982;28;20712;-71
2023/04/28 10:11:24;;;;;;;9.70;4.47;;;;;;;;;;5114145;27;20466;-71
2023/04/28 10:14:01;;;;;;;7.63;4.53;;;;;;;;;;5115675;28;20453;-71
2023/04/28 10:16:33;;;;;;;10.10;4.27;;;;;;;;;;5126558;27;20471;-71
2023/04/28 10:19:28;;;;;;;8.80;5.47;;;;;;;;;;5126249;27;20444;-72
2023/04/28 10:25:17;;;;;;;7.13;4.20;;;;;;;;;;5112822;28;20401;-70
2023/04/28 10:27:53;;;;;;;8.80;4.57;;;;;;;;;;5112423;28;20451;-72
2023/04/28 10:30:22;;;;;;;9.53;5.90;;;;;;;;;;5111534;28;20462;-69
2023/04/28 10:33:26;;;;;;;7.33;4.43;;;;;;;;;;5105752;28;20453;-69
2023/04/28 10:36:20;;;;;;;6.33;3.50;;;;;;;;;;5099232;28;20790;-71
2023/04/28 10:39:08;;;;;;;8.27;5.43;;;;;;;;;;5103785;28;20907;-73
2023/04/28 10:41:42;;;;;;;7.60;4.20;;;;;;;;;;5109483;28;20451;-69
2023/04/28 10:44:29;;;;;;;7.47;5.13;;;;;;;;;;5097281;28;20464;-68
2023/04/28 10:47:15;;;;;;;6.77;3.90;;;;;;;;;;5103001;28;21048;-71
2023/04/28 10:50:05;;;;;;;9.63;4.43;;;;;;;;;;5109365;28;20727;-69
2023/04/28 10:52:51;;;;;;;9.10;4.50;;;;;;;;;;5106464;28;20463;-69
2023/04/28 10:55:35;;;;;;;7.20;4.47;;;;;;;;;;5107511;28;20447;-70
2023/04/28 10:58:28;;;;;;;9.37;5.27;;;;;;;;;;5111848;28;20960;-69
2023/04/28 11:01:19;;;;;;;9.53;4.67;;;;;;;;;;5115839;28;20451;-70
2023/04/28 11:03:53;;;;;;;9.47;4.70;;;;;;;;;;5113857;28;20761;-70
2023/04/28 11:06:28;;;;;;;11.83;4.80;;;;;;;;;;5091073;28;20491;-68
2023/04/28 11:14:52;;;;;;;7.10;5.10;;;;;;;;;;5111713;28;20406;-69
2023/04/28 11:17:39;;;;;;;8.50;4.37;;;;;;;;;;5110236;28;20847;-69
2023/04/28 11:20:25;;;;;;;9.20;5.33;;;;;;;;;;5108256;28;20640;-68
2023/04/28 11:23:10;;;;;;;9.67;4.87;;;;;;;;;;5093189;28;20726;-71
2023/04/28 11:26:00;;;;;;;8.93;5.83;;;;;;;;;;5090834;28;20487;-71
2023/04/28 11:28:30;;;;;;;12.67;6.80;;;;;;;;;;5095114;28;20476;-69
2023/04/28 11:31:27;;;;;;;8.60;4.93;;;;;;;;;;5100035;28;20463;-69
2023/04/28 11:34:13;;;;;;;10.70;5.30;;;;;;;;;;5091146;28;20496;-70
2023/04/28 11:36:48;;;;;;;8.00;4.30;;;;;;;;;;5089471;28;21083;-70
2023/04/28 11:39:17;;;;;;;11.40;5.80;;;;;;;;;;5090922;28;21040;-69
2023/04/28 11:44:29;;;;;;;10.20;4.30;;;;;;;;;;5102312;28;20454;-70
2023/04/28 11:47:11;;;;;;;7.40;4.10;;;;;;;;;;5110466;28;20899;-70
2023/04/28 11:49:48;;;;;;;6.80;4.23;;;;;;;;;;5104017;28;20507;-70
2023/04/28 11:52:26;;;;;;;6.80;4.80;;;;;;;;;;5110012;28;20443;-71
2023/04/28 11:55:00;;;;;;;5.67;3.43;;;;;;;;;;5102481;28;20471;-70
2023/04/28 11:57:39;;;;;;;8.70;4.80;;;;;;;;;;5090008;28;20450;-71
2023/04/28 12:00:18;;;;;;;8.13;4.30;;;;;;;;;;5086268;28;20460;-70
2023/04/28 12:02:49;;;;;;;6.20;4.13;;;;;;;;;;5107777;28;20463;-70
2023/04/28 12:05:40;;;;;;;8.60;4.40;;;;;;;;;;5107500;28;20462;-70
2023/04/28 12:08:11;;;;;;;8.20;5.17;;;;;;;;;;5108472;28;20743;-70
2023/04/28 12:10:40;;;;;;;6.70;4.90;;;;;;;;;;5110065;28;20447;-69
2023/04/28 12:13:18;;;;;;;7.17;5.13;;;;;;;;;;5099681;28;20455;-70
2023/04/28 12:15:49;;;;;;;10.93;5.73;;;;;;;;;;5108221;28;20455;-70
2023/04/28 12:18:18;;;;;;;9.67;4.73;;;;;;;;;;5102884;28;20460;-70
2023/04/28 12:21:02;;;;;;;10.77;6.00;;;;;;;;;;5092556;28;20723;-69
2023/04/28 12:23:56;;;;;;;9.27;5.80;;;;;;;;;;5100523;28;20467;-72
2023/04/28 12:26:39;;;;;;;11.40;5.57;;;;;;;;;;5105619;28;20570;-70
2023/04/28 12:29:08;;;;;;;8.03;5.10;;;;;;;;;;5082791;28;20445;-70
2023/04/28 12:31:51;;;;;;;13.10;5.73;;;;;;;;;;5090878;28;20467;-71
2023/04/28 12:34:20;;;;;;;10.00;5.80;;;;;;;;;;5108812;28;20546;-70
2023/04/28 12:36:54;;;;;;;11.20;5.50;;;;;;;;;;5106410;28;20470;-70
2023/04/28 12:39:28;;;;;;;12.70;6.50;;;;;;;;;;5109232;28;20631;-70
2023/04/28 12:41:58;;;;;;;9.60;5.70;;;;;;;;;;5110143;28;20919;-69
2023/04/28 12:44:28;;;;;;;10.53;5.90;;;;;;;;;;5093245;28;20535;-71
2023/04/28 12:46:59;;;;;;;9.40;6.00;;;;;;;;;;5103935;28;20497;-69
2023/04/28 12:49:34;;;;;;;10.80;5.60;;;;;;;;;;5116935;28;20510;-72
2023/04/28 12:52:18;;;;;;;9.00;5.40;;;;;;;;;;5131106;27;20470;-70
2023/04/28 12:55:07;;;;;;;10.60;6.27;;;;;;;;;;5114695;28;20447;-73
2023/04/28 12:57:39;;;;;;;10.53;5.63;;;;;;;;;;5114727;28;20450;-69
2023/04/28 13:00:15;;;;;;;10.40;5.13;;;;;;;;;;5114999;28;20518;-71
2023/04/28 13:02:52;;;;;;;16.40;6.60;;;;;;;;;;5111685;28;20455;-69
2023/04/28 13:05:21;;;;;;;9.37;5.17;;;;;;;;;;5110753;28;20455;-69
2023/04/28 13:07:53;;;;;;;11.37;5.60;;;;;;;;;;5111321;28;20483;-69
2023/04/28 13:10:25;;;;;;;9.93;6.90;;;;;;;;;;5110554;28;20451;-69
2023/04/28 13:12:56;;;;;;;10.47;6.50;;;;;;;;;;5113588;28;20459;-71
2023/04/28 13:15:26;;;;;;;12.90;5.83;;;;;;;;;;5110512;28;20447;-69
2023/04/28 13:18:05;;;;;;;8.23;5.97;;;;;;;;;;5105335;28;20459;-71
2023/04/28 13:20:39;;;;;;;16.77;6.40;;;;;;;;;;5114740;28;20451;-70
2023/04/28 13:23:34;;;;;;;;;;;;;;;;;;;;;
2023/04/28 13:29:21;;;;;;;13.20;6.40;;;;;;;;;;5113621;28;20481;-70
2023/04/28 13:31:51;;;;;;;18.50;8.97;;;;;;;;;;5110794;28;20700;-69
2023/04/28 13:34:21;;;;;;;10.10;5.80;;;;;;;;;;5111703;28;20732;-69
2023/04/28 13:36:54;;;;;;;14.57;7.00;;;;;;;;;;5110374;28;20446;-71
2023/04/28 13:39:23;;;;;;;11.93;6.10;;;;;;;;;;5111287;28;20455;-69
2023/04/28 13:41:52;;;;;;;11.40;6.40;;;;;;;;;;5109941;28;20447;-69
2023/04/28 13:44:23;;;;;;;10.00;6.23;;;;;;;;;;5109203;28;20451;-69
2023/04/28 13:47:09;;;;;;;11.50;6.17;;;;;;;;;;5109808;28;20793;-70
2023/04/28 13:49:46;;;;;;;11.47;5.90;;;;;;;;;;5110511;28;20621;-68
2023/04/28 13:52:17;;;;;;;11.90;5.80;;;;;;;;;;5110301;28;20443;-69
2023/04/28 13:54:49;;;;;;;12.10;5.80;;;;;;;;;;5108663;28;20562;-70
2023/04/28 13:57:23;;;;;;;10.37;5.23;;;;;;;;;;5098267;28;20440;-70
2023/04/28 13:59:54;;;;;;;9.77;5.80;;;;;;;;;;5106385;28;20528;-70
2023/04/28 14:02:26;;;;;;;7.27;4.70;;;;;;;;;;5108825;28;20443;-69
2023/04/28 14:05:02;;;;;;;16.57;6.30;;;;;;;;;;5085508;28;20474;-69
2023/04/28 14:07:35;;;;;;;8.50;5.90;;;;;;;;;;5086972;28;20892;-70
2023/04/28 14:10:08;;;;;;;9.20;5.03;;;;;;;;;;5089040;28;20469;-69
2023/04/28 14:12:39;;;;;;;16.90;6.40;;;;;;;;;;5093466;28;20463;-68
2023/04/28 14:15:12;;;;;;;16.93;6.90;;;;;;;;;;5092142;28;20448;-70
2023/04/28 14:17:42;;;;;;;11.87;6.30;;;;;;;;;;5090813;28;21122;-70
2023/04/28 14:20:14;;;;;;;7.23;5.17;;;;;;;;;;5091875;28;20635;-70
2023/04/28 14:22:45;;;;;;;9.53;5.13;;;;;;;;;;5091795;28;20444;-70
2023/04/28 14:25:14;;;;;;;13.93;5.63;;;;;;;;;;5089182;28;20754;-70
2023/04/28 14:27:59;;;;;;;11.60;6.37;;;;;;;;;;5089421;28;20488;-70
2023/04/28 14:30:35;;;;;;;9.17;5.30;;;;;;;;;;5104496;28;20808;-70
2023/04/28 14:33:06;;;;;;;15.70;6.60;;;;;;;;;;5100705;28;20517;-70
2023/04/28 14:35:35;;;;;;;14.43;6.63;;;;;;;;;;5092119;28;21099;-70
2023/04/28 14:38:09;;;;;;;12.73;5.57;;;;;;;;;;5093773;28;20448;-69
2023/04/28 14:40:51;;;;;;;9.40;5.40;;;;;;;;;;5099731;28;20479;-69
2023/04/28 14:43:23;;;;;;;9.30;5.80;;;;;;;;;;5114830;28;20845;-70
2023/04/28 14:45:54;;;;;;;10.10;5.80;;;;;;;;;;5112129;28;20443;-71
2023/04/28 14:48:23;;;;;;;11.00;5.77;;;;;;;;;;5109810;28;20821;-70
2023/04/28 14:50:53;;;;;;;8.63;5.23;;;;;;;;;;5113653;28;20485;-70
2023/04/28 14:53:27;;;;;;;11.77;5.70;;;;;;;;;;5114203;28;20455;-70
2023/04/28 14:56:06;;;;;;;9.63;6.33;;;;;;;;;;5113411;28;20755;-70
2023/04/28 14:58:36;;;;;;;9.47;5.30;;;;;;;;;;5109657;28;21064;-70
2023/04/28 15:01:13;;;;;;;10.00;6.07;;;;;;;;;;5113233;28;20479;-69
2023/04/28 15:03:45;;;;;;;7.90;5.53;;;;;;;;;;5113259;28;20466;-69
2023/04/28 15:06:14;;;;;;;8.20;5.20;;;;;;;;;;5109178;28;20471;-70
2023/04/28 15:08:44;;;;;;;11.17;5.80;;;;;;;;;;5099518;28;20459;-70
2023/04/28 15:11:13;;;;;;;14.17;6.80;;;;;;;;;;5112919;28;20795;-69
2023/04/28 15:13:44;;;;;;;9.37;5.57;;;;;;;;;;5112118;28;20533;-70
2023/04/28 15:16:14;;;;;;;8.63;5.43;;;;;;;;;;5110851;28;20463;-69
2023/04/28 15:18:47;;;;;;;16.80;6.30;;;;;;;;;;5109946;28;20497;-71
2023/04/28 15:21:23;;;;;;;10.23;5.50;;;;;;;;;;5109076;28;20904;-70
2023/04/28 15:23:55;;;;;;;9.10;5.00;;;;;;;;;;5108740;28;20704;-71
2023/04/28 15:26:23;;;;;;;7.40;5.47;;;;;;;;;;5106853;28;20787;-70
2023/04/28 15:28:53;;;;;;;8.07;5.30;;;;;;;;;;5113005;28;20538;-71
2023/04/28 15:31:38;;;;;;;10.60;5.90;;;;;;;;;;5112787;28;20524;-71
2023/04/28 15:34:09;;;;;;;9.80;5.70;;;;;;;;;;5116234;28;20447;-71
2023/04/28 15:36:39;;;;;;;8.50;5.70;;;;;;;;;;5114462;28;20556;-70
2023/04/28 15:39:09;;;;;;;7.70;5.10;;;;;;;;;;5110582;28;20447;-72
2023/04/28 15:41:43;;;;;;;10.33;5.73;;;;;;;;;;5106592;28;20490;-70
2023/04/28 15:44:11;;;;;;;8.70;5.23;;;;;;;;;;5108791;28;20698;-69
2023/04/28 15:46:43;;;;;;;8.70;5.13;;;;;;;;;;5108099;28;20836;-69
2023/04/28 15:49:14;;;;;;;13.63;5.30;;;;;;;;;;5095162;28;20455;-69
2023/04/28 15:51:42;;;;;;;8.23;5.70;;;;;;;;;;5090134;28;20842;-69
2023/04/28 15:54:12;;;;;;;9.00;5.80;;;;;;;;;;5102809;28;20526;-70
2023/04/28 15:56:44;;;;;;;8.57;5.40;;;;;;;;;;5111113;28;20459;-70
2023/04/28 15:59:17;;;;;;;9.60;5.63;;;;;;;;;;5130526;28;20585;-71
2023/04/28 16:01:50;;;;;;;10.47;6.07;;;;;;;;;;5128299;28;20457;-70